Time;durP1;ratioP1;P1;durP2;ratioP2;P2;SDS_P1;SDS_P2;PMS_P1;PMS_P2;Temp;Humidity;BMP_temperature;BMP_pressure;BME280_temperature;BME280_humidity;BME280_pressure;Samples;Min_cycle;Max_cycle;Signal;HPM_P1;HPM_P2
2021/04/07 00:00:24;;;;;;;0.10;0.10;;;;;;;;;;5069629;28;20181;-70
2021/04/07 00:02:51;;;;;;;0.10;0.10;;;;;;;;;;5070592;28;20176;-70
2021/04/07 00:05:34;;;;;;;0.10;0.10;;;;;;;;;;5069399;28;20283;-70
2021/04/07 00:08:00;;;;;;;0.10;0.10;;;;;;;;;;5070855;28;20161;-69
2021/04/07 00:10:44;;;;;;;0.10;0.10;;;;;;;;;;5070803;28;20527;-70
2021/04/07 00:13:12;;;;;;;0.10;0.10;;;;;;;;;;5069429;28;20168;-70
2021/04/07 00:15:39;;;;;;;0.10;0.10;;;;;;;;;;5069269;28;20201;-69
2021/04/07 00:18:06;;;;;;;0.47;0.47;;;;;;;;;;5070580;28;20176;-70
2021/04/07 00:20:33;;;;;;;0.20;0.20;;;;;;;;;;5070502;28;20161;-69
2021/04/07 00:22:59;;;;;;;0.10;0.10;;;;;;;;;;5069220;28;20176;-70
2021/04/07 00:25:26;;;;;;;0.05;0.05;;;;;;;;;;5070317;28;20204;-70
2021/04/07 00:27:55;;;;;;;0.10;0.10;;;;;;;;;;5070294;28;20155;-70
2021/04/07 00:30:23;;;;;;;0.10;0.10;;;;;;;;;;5070366;28;20583;-70
2021/04/07 00:32:49;;;;;;;0.10;0.10;;;;;;;;;;5070283;28;20161;-70
2021/04/07 00:35:16;;;;;;;0.10;0.10;;;;;;;;;;5070167;28;20199;-70
2021/04/07 00:37:42;;;;;;;0.20;0.20;;;;;;;;;;5070175;28;20157;-70
2021/04/07 00:40:08;;;;;;;0.10;0.10;;;;;;;;;;5070019;28;20186;-69
2021/04/07 00:42:35;;;;;;;0.10;0.10;;;;;;;;;;5068132;28;20177;-70
2021/04/07 00:45:02;;;;;;;0.15;0.15;;;;;;;;;;5069428;28;20219;-70
2021/04/07 00:47:28;;;;;;;0.10;0.10;;;;;;;;;;5069960;28;20227;-69
2021/04/07 00:49:55;;;;;;;0.10;0.10;;;;;;;;;;5072888;28;20243;-69
2021/04/07 00:52:21;;;;;;;0.20;0.20;;;;;;;;;;5089906;28;20215;-70
2021/04/07 00:54:47;;;;;;;0.10;0.10;;;;;;;;;;5071804;28;20184;-70
2021/04/07 00:57:13;;;;;;;0.20;0.20;;;;;;;;;;5072040;28;20182;-70
2021/04/07 00:59:40;;;;;;;0.10;0.10;;;;;;;;;;5089676;28;20195;-70
2021/04/07 01:02:06;;;;;;;0.17;0.17;;;;;;;;;;5066431;28;20209;-70
2021/04/07 01:04:32;;;;;;;0.20;0.20;;;;;;;;;;5089543;28;20223;-68
2021/04/07 01:07:00;;;;;;;0.10;0.10;;;;;;;;;;5051109;28;20207;-69
2021/04/07 01:09:26;;;;;;;0.10;0.10;;;;;;;;;;5051799;28;20223;-69
2021/04/07 01:11:52;;;;;;;0.10;0.10;;;;;;;;;;5069512;28;20182;-70
2021/04/07 01:14:19;;;;;;;0.10;0.10;;;;;;;;;;5051098;28;20180;-69
2021/04/07 01:16:45;;;;;;;0.10;0.10;;;;;;;;;;5078266;28;20192;-69
2021/04/07 01:19:11;;;;;;;0.43;0.43;;;;;;;;;;5089603;28;20247;-69
2021/04/07 01:21:38;;;;;;;2.10;1.75;;;;;;;;;;5089478;28;20242;-70
2021/04/07 01:24:08;;;;;;;0.22;0.22;;;;;;;;;;5089447;28;20218;-69
2021/04/07 01:26:34;;;;;;;0.10;0.10;;;;;;;;;;5089391;28;20246;-69
2021/04/07 01:29:01;;;;;;;0.10;0.10;;;;;;;;;;5089400;28;20156;-70
2021/04/07 01:31:27;;;;;;;0.10;0.10;;;;;;;;;;5071307;28;20179;-69
2021/04/07 01:33:53;;;;;;;0.10;0.10;;;;;;;;;;5069607;28;20232;-69
2021/04/07 01:36:23;;;;;;;0.10;0.10;;;;;;;;;;5069139;28;20197;-70
2021/04/07 01:38:50;;;;;;;0.10;0.10;;;;;;;;;;5069178;28;20161;-69
2021/04/07 01:41:20;;;;;;;0.10;0.10;;;;;;;;;;5069100;28;20163;-70
2021/04/07 01:43:48;;;;;;;0.10;0.10;;;;;;;;;;5069026;28;20202;-70
2021/04/07 01:46:14;;;;;;;0.10;0.10;;;;;;;;;;5068932;28;20192;-69
2021/04/07 01:48:41;;;;;;;0.10;0.10;;;;;;;;;;5068961;28;20167;-69
2021/04/07 01:51:08;;;;;;;0.10;0.10;;;;;;;;;;5037802;28;20255;-70
2021/04/07 01:53:34;;;;;;;0.10;0.10;;;;;;;;;;5051736;28;20196;-70
2021/04/07 01:56:01;;;;;;;0.20;0.20;;;;;;;;;;5053129;28;20204;-69
2021/04/07 01:58:27;;;;;;;0.10;0.10;;;;;;;;;;5053156;28;20166;-69
2021/04/07 02:00:53;;;;;;;0.30;0.30;;;;;;;;;;5055744;28;20177;-69
2021/04/07 02:03:19;;;;;;;0.10;0.10;;;;;;;;;;5072744;28;20244;-70
2021/04/07 02:05:45;;;;;;;0.10;0.10;;;;;;;;;;5073047;28;20220;-70
2021/04/07 02:08:11;;;;;;;0.10;0.10;;;;;;;;;;5055070;28;20173;-69
2021/04/07 02:10:38;;;;;;;0.10;0.10;;;;;;;;;;5054951;28;20183;-70
2021/04/07 02:13:05;;;;;;;1.20;1.10;;;;;;;;;;5072786;28;20153;-70
2021/04/07 02:15:31;;;;;;;0.10;0.10;;;;;;;;;;5072895;28;20189;-68
2021/04/07 02:17:58;;;;;;;0.13;0.13;;;;;;;;;;5054869;28;20177;-70
2021/04/07 02:20:24;;;;;;;0.10;0.10;;;;;;;;;;5072702;28;20164;-70
2021/04/07 02:22:51;;;;;;;0.20;0.20;;;;;;;;;;5072698;28;20236;-71
2021/04/07 02:25:17;;;;;;;0.15;0.15;;;;;;;;;;5054579;28;20217;-68
2021/04/07 02:27:44;;;;;;;0.15;0.15;;;;;;;;;;5072654;28;20214;-70
2021/04/07 02:30:16;;;;;;;0.10;0.10;;;;;;;;;;5054530;28;20175;-70
2021/04/07 02:32:43;;;;;;;0.10;0.10;;;;;;;;;;5054502;28;20172;-68
2021/04/07 02:35:10;;;;;;;0.13;0.13;;;;;;;;;;5072175;28;20196;-70
2021/04/07 02:37:36;;;;;;;0.10;0.10;;;;;;;;;;5072396;28;20165;-68
2021/04/07 02:40:03;;;;;;;0.13;0.13;;;;;;;;;;5054276;28;20204;-70
2021/04/07 02:42:29;;;;;;;1.20;1.20;;;;;;;;;;5072204;28;20153;-68
2021/04/07 02:44:55;;;;;;;0.10;0.10;;;;;;;;;;5071900;28;20189;-70
2021/04/07 02:47:21;;;;;;;0.10;0.10;;;;;;;;;;5072157;28;20347;-68
2021/04/07 02:49:47;;;;;;;0.10;0.10;;;;;;;;;;5055814;28;20190;-69
2021/04/07 02:52:14;;;;;;;0.10;0.10;;;;;;;;;;5074201;28;20168;-70
2021/04/07 02:54:40;;;;;;;0.20;0.20;;;;;;;;;;5073936;28;20643;-70
2021/04/07 02:57:07;;;;;;;0.17;0.17;;;;;;;;;;5074006;28;20182;-69
2021/04/07 02:59:34;;;;;;;0.10;0.10;;;;;;;;;;5091699;28;20223;-70
2021/04/07 03:02:00;;;;;;;0.10;0.10;;;;;;;;;;5090824;28;20180;-68
2021/04/07 03:04:27;;;;;;;0.20;0.20;;;;;;;;;;5091128;28;20188;-71
2021/04/07 03:06:53;;;;;;;0.10;0.10;;;;;;;;;;5091871;28;20192;-68
2021/04/07 03:09:19;;;;;;;0.10;0.10;;;;;;;;;;5091476;28;20164;-67
2021/04/07 03:11:45;;;;;;;0.30;0.30;;;;;;;;;;5091673;28;20178;-68
2021/04/07 03:14:12;;;;;;;0.10;0.10;;;;;;;;;;5091502;28;20198;-70
2021/04/07 03:16:38;;;;;;;0.10;0.10;;;;;;;;;;5091577;28;20192;-70
2021/04/07 03:19:04;;;;;;;0.40;0.40;;;;;;;;;;5091693;28;20164;-68
2021/04/07 03:21:30;;;;;;;0.10;0.10;;;;;;;;;;5091618;28;20183;-70
2021/04/07 03:23:56;;;;;;;0.10;0.10;;;;;;;;;;5091523;28;20184;-68
2021/04/07 03:26:23;;;;;;;0.70;0.70;;;;;;;;;;5073455;28;20192;-71
2021/04/07 03:28:49;;;;;;;0.20;0.20;;;;;;;;;;5073488;28;20192;-69
2021/04/07 03:31:16;;;;;;;0.55;0.55;;;;;;;;;;5091408;28;20221;-70
2021/04/07 03:33:42;;;;;;;0.10;0.10;;;;;;;;;;5073492;28;20172;-68
2021/04/07 03:36:08;;;;;;;0.20;0.20;;;;;;;;;;5091187;28;20223;-68
2021/04/07 03:38:35;;;;;;;0.13;0.13;;;;;;;;;;5091315;28;20163;-67
2021/04/07 03:41:01;;;;;;;0.10;0.10;;;;;;;;;;5073073;28;20186;-68
2021/04/07 03:43:28;;;;;;;0.10;0.10;;;;;;;;;;5090846;28;20191;-70
2021/04/07 03:45:56;;;;;;;0.80;0.65;;;;;;;;;;5072892;28;20192;-70
2021/04/07 03:48:23;;;;;;;0.40;0.40;;;;;;;;;;5090911;28;20160;-70
2021/04/07 03:50:50;;;;;;;0.20;0.20;;;;;;;;;;5090531;28;20216;-69
2021/04/07 03:53:17;;;;;;;0.10;0.10;;;;;;;;;;5072920;28;20225;-70
2021/04/07 03:55:45;;;;;;;1.17;1.17;;;;;;;;;;5090015;28;20192;-70
2021/04/07 03:58:11;;;;;;;0.10;0.10;;;;;;;;;;5090553;28;20189;-68
2021/04/07 04:00:37;;;;;;;0.17;0.17;;;;;;;;;;5090548;28;20625;-68
2021/04/07 04:03:03;;;;;;;1.17;1.10;;;;;;;;;;5090476;28;20242;-69
2021/04/07 04:05:29;;;;;;;0.10;0.10;;;;;;;;;;5072638;28;20196;-68
2021/04/07 04:07:55;;;;;;;0.10;0.10;;;;;;;;;;5090398;28;20171;-69
2021/04/07 04:10:22;;;;;;;0.10;0.10;;;;;;;;;;5072533;28;20192;-68
2021/04/07 04:12:48;;;;;;;6.43;2.45;;;;;;;;;;5072452;28;20156;-69
2021/04/07 04:15:15;;;;;;;0.10;0.10;;;;;;;;;;5071866;28;20230;-69
2021/04/07 04:17:42;;;;;;;2.83;2.63;;;;;;;;;;5089502;28;20175;-68
2021/04/07 04:20:09;;;;;;;0.10;0.10;;;;;;;;;;5072285;28;20172;-69
2021/04/07 04:22:35;;;;;;;0.17;0.17;;;;;;;;;;5072209;28;20172;-68
2021/04/07 04:25:01;;;;;;;0.45;0.45;;;;;;;;;;5072181;28;20203;-69
2021/04/07 04:27:28;;;;;;;0.10;0.10;;;;;;;;;;5073500;28;20172;-68
2021/04/07 04:29:55;;;;;;;0.65;0.57;;;;;;;;;;5074263;28;20179;-69
2021/04/07 04:32:21;;;;;;;0.10;0.10;;;;;;;;;;5073812;28;20163;-69
2021/04/07 04:34:48;;;;;;;0.10;0.10;;;;;;;;;;5091980;28;20156;-69
2021/04/07 04:37:14;;;;;;;0.10;0.10;;;;;;;;;;5073072;28;20172;-70
2021/04/07 04:39:41;;;;;;;0.10;0.10;;;;;;;;;;5089719;28;20594;-69
2021/04/07 04:42:07;;;;;;;0.20;0.20;;;;;;;;;;5089867;28;20175;-69
2021/04/07 04:44:33;;;;;;;0.30;0.30;;;;;;;;;;5090882;28;20195;-70
2021/04/07 04:47:00;;;;;;;0.10;0.10;;;;;;;;;;5072577;28;20192;-70
2021/04/07 04:49:26;;;;;;;1.00;0.65;;;;;;;;;;5071778;28;20172;-70
2021/04/07 04:51:52;;;;;;;0.25;0.25;;;;;;;;;;5089235;28;20286;-68
2021/04/07 04:54:19;;;;;;;0.10;0.10;;;;;;;;;;5071663;28;20176;-68
2021/04/07 04:56:45;;;;;;;0.10;0.10;;;;;;;;;;5089593;28;20660;-68
2021/04/07 04:59:11;;;;;;;0.10;0.10;;;;;;;;;;5089533;28;20175;-68
2021/04/07 05:01:37;;;;;;;0.10;0.10;;;;;;;;;;5071174;28;20247;-68
2021/04/07 05:04:07;;;;;;;0.10;0.10;;;;;;;;;;5089423;28;20188;-69
2021/04/07 05:06:34;;;;;;;0.13;0.13;;;;;;;;;;5089211;28;20198;-69
2021/04/07 05:09:00;;;;;;;0.10;0.10;;;;;;;;;;5071244;28;20538;-68
2021/04/07 05:11:27;;;;;;;0.10;0.10;;;;;;;;;;5071154;28;20167;-68
2021/04/07 05:13:53;;;;;;;0.65;0.65;;;;;;;;;;5089280;28;20220;-69
2021/04/07 05:16:19;;;;;;;0.85;0.85;;;;;;;;;;5088846;28;20245;-70
2021/04/07 05:18:45;;;;;;;0.10;0.10;;;;;;;;;;5071034;28;20225;-70
2021/04/07 05:21:12;;;;;;;0.10;0.10;;;;;;;;;;5089235;28;20164;-70
2021/04/07 05:23:38;;;;;;;0.10;0.10;;;;;;;;;;5088900;28;20191;-68
2021/04/07 05:26:04;;;;;;;0.57;0.57;;;;;;;;;;5088678;28;20233;-70
2021/04/07 05:28:31;;;;;;;0.65;0.65;;;;;;;;;;5088674;28;20157;-68
2021/04/07 05:31:00;;;;;;;0.10;0.10;;;;;;;;;;5070538;28;20160;-68
2021/04/07 05:33:28;;;;;;;0.10;0.10;;;;;;;;;;5070724;28;20559;-68
2021/04/07 05:35:55;;;;;;;0.10;0.10;;;;;;;;;;5070886;28;20191;-68
2021/04/07 05:38:22;;;;;;;0.75;0.65;;;;;;;;;;5070456;28;20172;-68
2021/04/07 05:40:50;;;;;;;0.35;0.35;;;;;;;;;;5088581;28;20210;-68
2021/04/07 05:43:16;;;;;;;0.17;0.17;;;;;;;;;;5088554;28;20168;-67
2021/04/07 05:45:42;;;;;;;0.10;0.10;;;;;;;;;;5088855;28;20192;-70
2021/04/07 05:48:09;;;;;;;0.10;0.10;;;;;;;;;;5070919;28;20632;-70
2021/04/07 05:50:41;;;;;;;0.22;0.22;;;;;;;;;;5088711;28;20215;-70
2021/04/07 05:53:09;;;;;;;0.10;0.10;;;;;;;;;;5070770;28;20183;-70
2021/04/07 05:55:35;;;;;;;0.20;0.20;;;;;;;;;;5088589;28;20194;-70
2021/04/07 05:58:03;;;;;;;0.10;0.10;;;;;;;;;;5088764;28;20167;-70
2021/04/07 06:00:29;;;;;;;0.13;0.13;;;;;;;;;;5088598;28;20218;-70
2021/04/07 06:02:56;;;;;;;0.10;0.10;;;;;;;;;;5070160;28;20188;-70
2021/04/07 06:05:23;;;;;;;1.50;1.40;;;;;;;;;;5088566;28;20204;-69
2021/04/07 06:07:50;;;;;;;0.10;0.10;;;;;;;;;;5088544;28;20190;-70
2021/04/07 06:10:16;;;;;;;0.10;0.10;;;;;;;;;;5070400;28;20179;-68
2021/04/07 06:12:42;;;;;;;0.43;0.43;;;;;;;;;;5088481;28;20157;-68
2021/04/07 06:15:09;;;;;;;0.10;0.10;;;;;;;;;;5070424;28;20279;-68
2021/04/07 06:17:36;;;;;;;0.10;0.10;;;;;;;;;;5070077;28;20178;-70
2021/04/07 06:20:05;;;;;;;0.10;0.10;;;;;;;;;;5088568;28;20164;-70
2021/04/07 06:22:31;;;;;;;0.10;0.10;;;;;;;;;;5088594;28;20190;-68
2021/04/07 06:24:57;;;;;;;0.55;0.55;;;;;;;;;;5088337;28;20346;-70
2021/04/07 06:27:24;;;;;;;0.10;0.10;;;;;;;;;;5070366;28;20307;-69
2021/04/07 06:29:50;;;;;;;0.55;0.35;;;;;;;;;;5088551;28;20190;-69
2021/04/07 06:32:16;;;;;;;0.10;0.10;;;;;;;;;;5078073;28;20192;-68
2021/04/07 06:34:42;;;;;;;0.25;0.25;;;;;;;;;;5067922;28;20168;-70
2021/04/07 06:37:08;;;;;;;0.43;0.43;;;;;;;;;;5068327;28;20169;-67
2021/04/07 06:39:34;;;;;;;0.10;0.10;;;;;;;;;;5069194;28;20255;-67
2021/04/07 06:42:01;;;;;;;0.10;0.10;;;;;;;;;;5072034;28;20157;-68
2021/04/07 06:44:27;;;;;;;0.17;0.17;;;;;;;;;;5070679;28;20201;-68
2021/04/07 06:46:57;;;;;;;0.22;0.22;;;;;;;;;;5071647;28;20198;-68
2021/04/07 06:49:25;;;;;;;0.52;0.52;;;;;;;;;;5071577;28;20247;-68
2021/04/07 06:51:53;;;;;;;0.17;0.17;;;;;;;;;;5071664;28;20224;-68
2021/04/07 06:54:21;;;;;;;0.15;0.15;;;;;;;;;;5053844;28;20173;-68
2021/04/07 06:56:49;;;;;;;0.10;0.10;;;;;;;;;;5053636;28;20197;-68
2021/04/07 06:59:15;;;;;;;0.10;0.10;;;;;;;;;;5071655;28;20292;-68
2021/04/07 07:01:42;;;;;;;0.73;0.73;;;;;;;;;;5079850;28;20648;-69
2021/04/07 07:04:08;;;;;;;1.02;1.02;;;;;;;;;;5091566;28;20184;-69
2021/04/07 07:06:34;;;;;;;0.08;0.08;;;;;;;;;;5091428;28;20683;-69
2021/04/07 07:09:12;;;;;;;0.32;0.32;;;;;;;;;;5091429;28;20160;-69
2021/04/07 07:11:39;;;;;;;0.30;0.30;;;;;;;;;;5091204;28;20156;-69
2021/04/07 07:14:05;;;;;;;1.23;1.02;;;;;;;;;;5091568;28;20180;-68
2021/04/07 07:16:31;;;;;;;0.20;0.20;;;;;;;;;;5091063;28;20222;-68
2021/04/07 07:18:58;;;;;;;0.47;0.47;;;;;;;;;;5087197;28;20200;-68
2021/04/07 07:21:25;;;;;;;0.00;0.00;;;;;;;;;;5071020;28;20173;-68
2021/04/07 07:23:51;;;;;;;0.10;0.10;;;;;;;;;;5052090;28;20208;-68
2021/04/07 07:26:19;;;;;;;0.17;0.15;;;;;;;;;;5052910;28;20193;-70
2021/04/07 07:28:51;;;;;;;0.10;0.10;;;;;;;;;;5052773;28;20181;-70
2021/04/07 07:31:17;;;;;;;0.10;0.10;;;;;;;;;;5054455;28;20176;-68
2021/04/07 07:33:44;;;;;;;0.20;0.20;;;;;;;;;;5059326;28;20177;-68
2021/04/07 07:36:10;;;;;;;0.00;0.00;;;;;;;;;;5045860;28;20196;-70
2021/04/07 07:38:43;;;;;;;0.10;0.10;;;;;;;;;;5069610;28;20189;-70
2021/04/07 07:41:10;;;;;;;9.13;1.40;;;;;;;;;;5050713;28;20212;-69
2021/04/07 07:43:37;;;;;;;0.10;0.10;;;;;;;;;;5069699;28;20196;-70
2021/04/07 07:46:07;;;;;;;2.05;0.95;;;;;;;;;;5070137;28;20240;-68
2021/04/07 07:48:33;;;;;;;0.68;0.68;;;;;;;;;;5069511;28;20296;-68
2021/04/07 07:51:00;;;;;;;0.13;0.13;;;;;;;;;;5057627;28;20299;-68
2021/04/07 07:53:26;;;;;;;0.10;0.10;;;;;;;;;;5048133;28;20185;-68
2021/04/07 07:55:53;;;;;;;0.25;0.25;;;;;;;;;;5032363;28;20205;-72
2021/04/07 07:58:26;;;;;;;0.13;0.13;;;;;;;;;;5049919;28;20158;-73
2021/04/07 08:01:15;;;;;;;0.10;0.10;;;;;;;;;;5052759;28;20187;-73
2021/04/07 08:03:45;;;;;;;0.10;0.10;;;;;;;;;;5069267;28;20192;-73
2021/04/07 08:06:12;;;;;;;6.35;2.17;;;;;;;;;;5052313;28;20308;-74
2021/04/07 08:08:38;;;;;;;0.20;0.20;;;;;;;;;;5050035;28;20158;-74
2021/04/07 08:11:05;;;;;;;0.00;0.00;;;;;;;;;;5050495;28;20593;-73
2021/04/07 08:13:47;;;;;;;0.15;0.15;;;;;;;;;;5031617;28;20173;-73
2021/04/07 08:16:15;;;;;;;0.10;0.10;;;;;;;;;;5054483;28;20246;-73
2021/04/07 08:18:42;;;;;;;0.20;0.20;;;;;;;;;;5070077;28;20165;-74
2021/04/07 08:21:08;;;;;;;0.73;0.73;;;;;;;;;;5070143;28;20161;-73
2021/04/07 08:23:35;;;;;;;0.65;0.65;;;;;;;;;;5068093;28;20200;-73
2021/04/07 08:26:02;;;;;;;0.35;0.17;;;;;;;;;;5070021;28;20187;-73
2021/04/07 08:28:29;;;;;;;0.00;0.00;;;;;;;;;;5069850;28;20213;-72
2021/04/07 08:30:55;;;;;;;0.00;0.00;;;;;;;;;;5051919;28;20176;-74
2021/04/07 08:33:23;;;;;;;0.00;0.00;;;;;;;;;;5051876;28;20196;-73
2021/04/07 08:35:54;;;;;;;0.10;0.10;;;;;;;;;;5069738;28;20157;-73
2021/04/07 08:38:30;;;;;;;0.60;0.55;;;;;;;;;;5051046;28;20212;-73
2021/04/07 08:41:07;;;;;;;0.00;0.00;;;;;;;;;;5051762;28;20264;-73
2021/04/07 08:43:34;;;;;;;0.57;0.57;;;;;;;;;;5069732;28;20247;-73
2021/04/07 08:46:10;;;;;;;0.00;0.00;;;;;;;;;;5051830;28;20168;-73
2021/04/07 08:48:37;;;;;;;0.10;0.10;;;;;;;;;;5069395;28;20184;-73
2021/04/07 08:51:04;;;;;;;0.55;0.55;;;;;;;;;;5081697;28;20227;-73
2021/04/07 08:53:31;;;;;;;1.23;0.98;;;;;;;;;;5089529;28;20160;-73
2021/04/07 08:55:58;;;;;;;0.00;0.00;;;;;;;;;;5089224;28;20174;-74
2021/04/07 08:58:25;;;;;;;0.52;0.52;;;;;;;;;;5089491;28;20562;-74
2021/04/07 09:00:55;;;;;;;0.10;0.10;;;;;;;;;;5089258;28;20165;-73
2021/04/07 09:03:23;;;;;;;0.05;0.05;;;;;;;;;;5088643;28;20168;-74
2021/04/07 09:05:50;;;;;;;0.20;0.13;;;;;;;;;;5089389;28;20179;-74
2021/04/07 09:08:17;;;;;;;0.10;0.10;;;;;;;;;;5071208;28;20202;-73
2021/04/07 09:10:47;;;;;;;0.00;0.00;;;;;;;;;;5089262;28;20213;-74
2021/04/07 09:13:15;;;;;;;0.20;0.20;;;;;;;;;;5071111;28;20168;-74
2021/04/07 09:15:49;;;;;;;0.00;0.00;;;;;;;;;;5089100;28;20191;-74
2021/04/07 09:18:18;;;;;;;0.00;0.00;;;;;;;;;;5088832;28;20209;-73
2021/04/07 09:20:52;;;;;;;0.38;0.38;;;;;;;;;;5059145;28;20204;-73
2021/04/07 09:23:25;;;;;;;0.00;0.00;;;;;;;;;;5050753;28;20174;-73
2021/04/07 09:25:56;;;;;;;0.20;0.20;;;;;;;;;;5042025;28;20205;-75
2021/04/07 09:28:51;;;;;;;0.03;0.03;;;;;;;;;;5065780;28;20180;-77
2021/04/07 09:31:23;;;;;;;0.28;0.10;;;;;;;;;;4984174;28;20604;-73
2021/04/07 09:33:51;;;;;;;0.00;0.00;;;;;;;;;;4984570;28;20187;-75
2021/04/07 09:36:18;;;;;;;0.10;0.10;;;;;;;;;;4986925;28;20219;-74
2021/04/07 09:38:49;;;;;;;0.30;0.30;;;;;;;;;;4987588;28;20214;-74
2021/04/07 09:41:18;;;;;;;0.00;0.00;;;;;;;;;;4987431;28;20183;-73
2021/04/07 09:43:44;;;;;;;0.00;0.00;;;;;;;;;;4985771;28;20201;-73
2021/04/07 09:46:10;;;;;;;0.15;0.15;;;;;;;;;;4986431;28;20231;-73
2021/04/07 09:48:47;;;;;;;9.32;0.75;;;;;;;;;;4987719;28;20180;-74
2021/04/07 09:51:18;;;;;;;0.05;0.05;;;;;;;;;;4987396;28;20223;-74
2021/04/07 09:53:44;;;;;;;0.10;0.10;;;;;;;;;;4987517;28;20194;-74
2021/04/07 09:56:11;;;;;;;0.00;0.00;;;;;;;;;;4986349;28;20211;-74
2021/04/07 09:58:43;;;;;;;0.10;0.10;;;;;;;;;;4971662;28;20168;-74
2021/04/07 10:01:10;;;;;;;0.00;0.00;;;;;;;;;;4974728;28;20218;-73
2021/04/07 10:03:36;;;;;;;0.10;0.10;;;;;;;;;;4987633;28;20207;-73
2021/04/07 10:06:03;;;;;;;1.20;1.20;;;;;;;;;;4987527;28;20649;-73
2021/04/07 10:08:29;;;;;;;0.10;0.10;;;;;;;;;;5021782;28;20182;-73
2021/04/07 10:11:06;;;;;;;0.15;0.15;;;;;;;;;;5011057;28;20170;-73
2021/04/07 10:13:33;;;;;;;0.10;0.10;;;;;;;;;;5031190;28;20220;-74
2021/04/07 10:15:59;;;;;;;0.10;0.10;;;;;;;;;;5042834;28;20230;-73
2021/04/07 10:18:26;;;;;;;0.00;0.00;;;;;;;;;;5071668;28;20165;-73
2021/04/07 10:20:52;;;;;;;0.00;0.00;;;;;;;;;;5069546;28;20258;-73
2021/04/07 10:23:21;;;;;;;0.10;0.10;;;;;;;;;;5052056;28;20639;-73
2021/04/07 10:25:53;;;;;;;0.00;0.00;;;;;;;;;;5029115;28;20379;-74
2021/04/07 10:28:20;;;;;;;0.00;0.00;;;;;;;;;;5046889;28;20231;-73
2021/04/07 10:30:46;;;;;;;0.38;0.38;;;;;;;;;;5051474;28;20197;-74
2021/04/07 10:33:12;;;;;;;0.08;0.08;;;;;;;;;;5034476;28;20211;-73
2021/04/07 10:35:39;;;;;;;0.10;0.10;;;;;;;;;;5052250;28;20208;-73
2021/04/07 10:38:09;;;;;;;0.10;0.10;;;;;;;;;;5050262;28;20184;-73
2021/04/07 10:40:38;;;;;;;0.10;0.10;;;;;;;;;;5034240;28;20187;-73
2021/04/07 10:43:11;;;;;;;0.00;0.00;;;;;;;;;;5051935;28;20153;-73
2021/04/07 10:45:37;;;;;;;0.10;0.10;;;;;;;;;;5033994;28;20208;-73
2021/04/07 10:48:04;;;;;;;2.20;1.30;;;;;;;;;;5050808;28;20237;-73
2021/04/07 10:50:31;;;;;;;0.00;0.00;;;;;;;;;;5059383;28;20285;-73
2021/04/07 10:52:58;;;;;;;0.20;0.20;;;;;;;;;;5071812;28;20176;-73
2021/04/07 10:55:25;;;;;;;0.05;0.05;;;;;;;;;;5053778;28;20677;-73
2021/04/07 10:57:55;;;;;;;0.00;0.00;;;;;;;;;;5052890;28;20211;-74
2021/04/07 11:00:24;;;;;;;0.10;0.10;;;;;;;;;;5070828;28;20172;-74
2021/04/07 11:02:53;;;;;;;0.10;0.10;;;;;;;;;;5090345;28;20191;-74
2021/04/07 11:05:21;;;;;;;0.00;0.00;;;;;;;;;;5091626;28;20208;-74
2021/04/07 11:07:48;;;;;;;0.10;0.10;;;;;;;;;;5072849;28;20168;-73
2021/04/07 11:10:15;;;;;;;0.52;0.52;;;;;;;;;;5091307;28;20251;-74
2021/04/07 11:12:44;;;;;;;1.75;1.25;;;;;;;;;;5091632;28;20144;-74
2021/04/07 11:15:13;;;;;;;0.00;0.00;;;;;;;;;;5091591;28;20175;-74
2021/04/07 11:17:53;;;;;;;0.30;0.30;;;;;;;;;;5091423;28;20632;-74
2021/04/07 11:20:20;;;;;;;0.00;0.00;;;;;;;;;;5091501;28;20251;-74
2021/04/07 11:22:46;;;;;;;0.00;0.00;;;;;;;;;;5073354;28;20257;-73
2021/04/07 11:25:13;;;;;;;0.28;0.28;;;;;;;;;;5090575;28;20191;-74
2021/04/07 11:27:40;;;;;;;0.00;0.00;;;;;;;;;;5091331;28;20194;-75
2021/04/07 11:30:07;;;;;;;0.13;0.13;;;;;;;;;;5091223;28;20207;-74
2021/04/07 11:32:36;;;;;;;0.00;0.00;;;;;;;;;;5073353;28;20646;-74
2021/04/07 11:35:15;;;;;;;0.00;0.00;;;;;;;;;;5073355;28;20624;-74
2021/04/07 11:38:00;;;;;;;0.90;0.85;;;;;;;;;;5090945;28;20231;-74
2021/04/07 11:45:31;;;;;;;0.30;0.30;;;;;;;;;;5091091;28;20198;-74
2021/04/07 11:47:58;;;;;;;0.00;0.00;;;;;;;;;;5072887;28;20181;-74
2021/04/07 11:50:24;;;;;;;0.10;0.10;;;;;;;;;;5063242;28;20255;-74
2021/04/07 11:52:50;;;;;;;0.00;0.00;;;;;;;;;;5050544;28;20169;-74
2021/04/07 11:55:17;;;;;;;0.10;0.10;;;;;;;;;;5032852;28;20177;-74
2021/04/07 11:57:43;;;;;;;0.10;0.10;;;;;;;;;;5032361;28;20283;-74
2021/04/07 12:00:11;;;;;;;1.20;1.10;;;;;;;;;;5050340;28;20189;-74
2021/04/07 12:02:40;;;;;;;0.00;0.00;;;;;;;;;;5067236;28;20184;-74
2021/04/07 12:05:07;;;;;;;0.00;0.00;;;;;;;;;;5070539;28;20188;-74
2021/04/07 12:07:33;;;;;;;0.10;0.10;;;;;;;;;;5070257;28;20184;-74
2021/04/07 12:10:00;;;;;;;0.10;0.10;;;;;;;;;;5052486;28;20255;-73
2021/04/07 12:12:26;;;;;;;0.10;0.10;;;;;;;;;;5052420;28;20176;-73
2021/04/07 12:14:52;;;;;;;0.10;0.10;;;;;;;;;;5070132;28;20168;-73
2021/04/07 12:17:18;;;;;;;0.10;0.10;;;;;;;;;;5051923;28;20196;-74
2021/04/07 12:19:45;;;;;;;0.10;0.10;;;;;;;;;;5052119;28;20247;-74
2021/04/07 12:22:12;;;;;;;0.10;0.10;;;;;;;;;;5052135;28;20196;-74
2021/04/07 12:24:38;;;;;;;0.00;0.00;;;;;;;;;;5059420;28;20252;-73
2021/04/07 12:27:05;;;;;;;0.10;0.10;;;;;;;;;;5031060;28;20177;-73
2021/04/07 12:29:31;;;;;;;0.10;0.10;;;;;;;;;;5049885;28;20276;-73
2021/04/07 12:31:58;;;;;;;0.00;0.00;;;;;;;;;;5047548;28;20200;-74
2021/04/07 12:34:25;;;;;;;0.00;0.00;;;;;;;;;;5048305;28;20607;-73
2021/04/07 12:36:52;;;;;;;0.00;0.00;;;;;;;;;;5048095;28;20166;-74
2021/04/07 12:39:18;;;;;;;0.10;0.10;;;;;;;;;;5049002;28;20192;-73
2021/04/07 12:44:10;;;;;;;0.10;0.10;;;;;;;;;;5049519;28;20291;-73
2021/04/07 12:46:37;;;;;;;0.10;0.10;;;;;;;;;;5047242;28;20165;-74
2021/04/07 12:49:04;;;;;;;0.00;0.00;;;;;;;;;;5030838;28;20205;-74
2021/04/07 12:51:30;;;;;;;0.15;0.15;;;;;;;;;;5036990;28;20220;-74
2021/04/07 12:53:57;;;;;;;0.13;0.13;;;;;;;;;;5050078;28;20200;-74
2021/04/07 12:56:24;;;;;;;0.00;0.00;;;;;;;;;;5040131;28;20200;-74
2021/04/07 12:58:51;;;;;;;0.00;0.00;;;;;;;;;;5045655;28;20169;-74
2021/04/07 13:01:18;;;;;;;0.00;0.00;;;;;;;;;;5053730;28;20191;-74
2021/04/07 13:03:44;;;;;;;0.00;0.00;;;;;;;;;;5048799;28;20247;-74
2021/04/07 13:06:10;;;;;;;0.40;0.40;;;;;;;;;;5030314;28;20166;-74
2021/04/07 13:08:38;;;;;;;0.10;0.10;;;;;;;;;;5030364;28;20172;-74
2021/04/07 13:11:05;;;;;;;0.00;0.00;;;;;;;;;;5048787;28;20154;-74
2021/04/07 13:13:31;;;;;;;0.80;0.80;;;;;;;;;;5030881;28;20167;-75
2021/04/07 13:15:57;;;;;;;0.00;0.00;;;;;;;;;;5050955;28;20158;-75
2021/04/07 13:18:24;;;;;;;0.00;0.00;;;;;;;;;;5049731;28;20625;-74
2021/04/07 13:20:52;;;;;;;0.00;0.00;;;;;;;;;;5050641;28;20189;-74
2021/04/07 13:23:18;;;;;;;0.10;0.10;;;;;;;;;;5068614;28;20220;-74
2021/04/07 13:25:44;;;;;;;0.10;0.10;;;;;;;;;;5068215;28;20168;-74
2021/04/07 13:28:12;;;;;;;1.30;0.35;;;;;;;;;;5067938;28;20168;-74
2021/04/07 13:30:45;;;;;;;0.10;0.10;;;;;;;;;;5068253;28;20199;-74
2021/04/07 13:33:22;;;;;;;0.20;0.20;;;;;;;;;;5068081;28;20176;-74
2021/04/07 13:35:51;;;;;;;0.00;0.00;;;;;;;;;;5068595;28;20554;-74
2021/04/07 13:43:10;;;;;;;0.00;0.00;;;;;;;;;;5068117;28;20240;-74
2021/04/07 13:45:37;;;;;;;0.52;0.52;;;;;;;;;;5050799;28;20231;-74
2021/04/07 13:48:14;;;;;;;0.00;0.00;;;;;;;;;;5050691;28;20696;-74
2021/04/07 13:50:40;;;;;;;0.38;0.38;;;;;;;;;;5055511;28;20277;-74
2021/04/07 13:53:06;;;;;;;0.00;0.00;;;;;;;;;;5066547;28;20191;-74
2021/04/07 13:55:36;;;;;;;0.05;0.05;;;;;;;;;;5048031;28;20168;-74
2021/04/07 13:58:02;;;;;;;0.10;0.10;;;;;;;;;;5045893;28;20252;-74
2021/04/07 14:00:29;;;;;;;0.08;0.08;;;;;;;;;;5047768;28;20223;-74
2021/04/07 14:02:59;;;;;;;6.40;0.85;;;;;;;;;;5065908;28;20180;-73
2021/04/07 14:05:25;;;;;;;0.75;0.75;;;;;;;;;;5062205;28;20205;-74
2021/04/07 14:07:53;;;;;;;0.05;0.05;;;;;;;;;;5048501;28;20221;-74
2021/04/07 14:10:20;;;;;;;0.10;0.10;;;;;;;;;;5061751;28;20195;-74
2021/04/07 14:12:56;;;;;;;0.08;0.08;;;;;;;;;;5048527;28;20177;-73
2021/04/07 14:15:22;;;;;;;0.10;0.10;;;;;;;;;;5047035;28;20245;-73
2021/04/07 14:17:49;;;;;;;0.10;0.10;;;;;;;;;;5064757;28;20184;-73
2021/04/07 14:20:16;;;;;;;0.10;0.10;;;;;;;;;;5068159;28;20212;-72
2021/04/07 14:22:42;;;;;;;0.20;0.20;;;;;;;;;;5067226;28;20228;-74
2021/04/07 14:25:12;;;;;;;0.10;0.10;;;;;;;;;;5066970;28;20661;-72
2021/04/07 14:27:39;;;;;;;0.10;0.10;;;;;;;;;;5067301;28;20171;-73
2021/04/07 14:30:06;;;;;;;0.10;0.10;;;;;;;;;;5066666;28;20214;-74
2021/04/07 14:32:33;;;;;;;0.00;0.00;;;;;;;;;;5066850;28;20165;-72
2021/04/07 14:34:59;;;;;;;0.10;0.10;;;;;;;;;;5066140;28;20176;-73
2021/04/07 14:37:26;;;;;;;0.10;0.10;;;;;;;;;;5068179;28;20161;-74
2021/04/07 14:39:52;;;;;;;0.10;0.10;;;;;;;;;;5067766;28;20193;-75
2021/04/07 14:42:18;;;;;;;0.10;0.10;;;;;;;;;;5067979;28;20165;-73
2021/04/07 14:44:45;;;;;;;0.10;0.10;;;;;;;;;;5068147;28;20185;-74
2021/04/07 14:47:11;;;;;;;0.00;0.00;;;;;;;;;;5066559;28;20164;-74
2021/04/07 14:49:37;;;;;;;0.10;0.10;;;;;;;;;;5068422;28;20189;-74
2021/04/07 14:52:07;;;;;;;0.10;0.10;;;;;;;;;;5070205;28;20192;-74
2021/04/07 14:54:38;;;;;;;0.10;0.10;;;;;;;;;;5088268;28;20160;-74
2021/04/07 14:57:05;;;;;;;0.10;0.10;;;;;;;;;;5088248;28;20591;-74